sensor_id;sensor_type;location;lat;lon;timestamp;P1;durP1;ratioP1;P2;durP2;ratioP2
14116;SDS011;7137;51.436;6.544;2022-12-20T00:00:02;6.17;;;3.57;;
14116;SDS011;7137;51.436;6.544;2022-12-20T00:03:04;5.50;;;3.33;;
14116;SDS011;7137;51.436;6.544;2022-12-20T00:06:07;5.93;;;3.10;;
14116;SDS011;7137;51.436;6.544;2022-12-20T00:09:11;5.10;;;2.70;;
14116;SDS011;7137;51.436;6.544;2022-12-20T00:12:12;6.80;;;2.87;;
14116;SDS011;7137;51.436;6.544;2022-12-20T00:15:14;5.87;;;2.80;;
14116;SDS011;7137;51.436;6.544;2022-12-20T00:18:16;4.70;;;2.53;;
14116;SDS011;7137;51.436;6.544;2022-12-20T00:21:18;4.20;;;2.50;;
14116;SDS011;7137;51.436;6.544;2022-12-20T00:24:21;5.03;;;2.90;;
14116;SDS011;7137;51.436;6.544;2022-12-20T00:27:23;6.03;;;2.73;;
14116;SDS011;7137;51.436;6.544;2022-12-20T00:30:24;5.57;;;3.03;;
14116;SDS011;7137;51.436;6.544;2022-12-20T00:33:26;5.63;;;2.97;;
14116;SDS011;7137;51.436;6.544;2022-12-20T00:36:28;5.37;;;2.93;;
14116;SDS011;7137;51.436;6.544;2022-12-20T00:39:32;5.13;;;2.70;;
14116;SDS011;7137;51.436;6.544;2022-12-20T00:42:34;4.83;;;2.73;;
14116;SDS011;7137;51.436;6.544;2022-12-20T00:45:35;4.40;;;2.30;;
14116;SDS011;7137;51.436;6.544;2022-12-20T00:48:37;4.47;;;2.20;;
14116;SDS011;7137;51.436;6.544;2022-12-20T00:51:38;5.13;;;2.03;;
14116;SDS011;7137;51.436;6.544;2022-12-20T00:54:41;5.33;;;2.50;;
14116;SDS011;7137;51.436;6.544;2022-12-20T00:57:43;3.83;;;1.87;;
14116;SDS011;7137;51.436;6.544;2022-12-20T01:00:44;4.03;;;1.80;;
14116;SDS011;7137;51.436;6.544;2022-12-20T01:03:46;3.13;;;1.60;;
14116;SDS011;7137;51.436;6.544;2022-12-20T01:06:48;3.13;;;1.73;;
14116;SDS011;7137;51.436;6.544;2022-12-20T01:09:51;3.10;;;1.50;;
14116;SDS011;7137;51.436;6.544;2022-12-20T01:12:52;3.20;;;1.80;;
14116;SDS011;7137;51.436;6.544;2022-12-20T01:15:54;4.03;;;1.63;;
14116;SDS011;7137;51.436;6.544;2022-12-20T01:18:56;2.83;;;1.70;;
14116;SDS011;7137;51.436;6.544;2022-12-20T01:21:58;3.30;;;1.60;;
14116;SDS011;7137;51.436;6.544;2022-12-20T01:25:01;5.10;;;1.97;;
14116;SDS011;7137;51.436;6.544;2022-12-20T01:28:03;3.70;;;1.70;;
14116;SDS011;7137;51.436;6.544;2022-12-20T01:31:05;2.97;;;1.73;;
14116;SDS011;7137;51.436;6.544;2022-12-20T01:34:08;4.20;;;1.87;;
14116;SDS011;7137;51.436;6.544;2022-12-20T01:37:09;2.57;;;1.40;;
14116;SDS011;7137;51.436;6.544;2022-12-20T01:40:12;3.97;;;1.60;;
14116;SDS011;7137;51.436;6.544;2022-12-20T01:43:14;3.70;;;1.57;;
14116;SDS011;7137;51.436;6.544;2022-12-20T01:46:18;4.57;;;1.67;;
14116;SDS011;7137;51.436;6.544;2022-12-20T01:49:23;2.90;;;1.50;;
14116;SDS011;7137;51.436;6.544;2022-12-20T01:52:30;2.63;;;1.50;;
14116;SDS011;7137;51.436;6.544;2022-12-20T01:55:37;3.57;;;1.80;;
14116;SDS011;7137;51.436;6.544;2022-12-20T01:58:38;4.00;;;1.40;;
14116;SDS011;7137;51.436;6.544;2022-12-20T02:01:40;4.37;;;1.57;;
14116;SDS011;7137;51.436;6.544;2022-12-20T02:04:43;3.03;;;1.70;;
14116;SDS011;7137;51.436;6.544;2022-12-20T02:07:45;4.47;;;1.53;;
14116;SDS011;7137;51.436;6.544;2022-12-20T02:10:59;3.67;;;1.53;;
14116;SDS011;7137;51.436;6.544;2022-12-20T02:14:11;3.27;;;1.53;;
14116;SDS011;7137;51.436;6.544;2022-12-20T02:17:21;3.10;;;1.50;;
14116;SDS011;7137;51.436;6.544;2022-12-20T02:20:43;3.63;;;1.60;;
14116;SDS011;7137;51.436;6.544;2022-12-20T02:24:00;4.27;;;1.70;;
14116;SDS011;7137;51.436;6.544;2022-12-20T02:30:51;3.87;;;1.80;;
14116;SDS011;7137;51.436;6.544;2022-12-20T02:33:54;3.33;;;1.70;;
14116;SDS011;7137;51.436;6.544;2022-12-20T02:36:58;3.40;;;1.50;;
14116;SDS011;7137;51.436;6.544;2022-12-20T02:40:00;3.93;;;1.80;;
14116;SDS011;7137;51.436;6.544;2022-12-20T02:43:05;3.20;;;1.60;;
14116;SDS011;7137;51.436;6.544;2022-12-20T02:46:33;4.13;;;1.60;;
14116;SDS011;7137;51.436;6.544;2022-12-20T02:49:35;4.30;;;1.80;;
14116;SDS011;7137;51.436;6.544;2022-12-20T02:52:40;4.73;;;1.80;;
14116;SDS011;7137;51.436;6.544;2022-12-20T02:55:43;3.83;;;2.10;;
14116;SDS011;7137;51.436;6.544;2022-12-20T02:58:48;3.80;;;1.90;;
14116;SDS011;7137;51.436;6.544;2022-12-20T03:01:54;5.13;;;2.30;;
14116;SDS011;7137;51.436;6.544;2022-12-20T03:04:56;3.50;;;1.90;;
14116;SDS011;7137;51.436;6.544;2022-12-20T03:07:58;3.97;;;2.10;;
14116;SDS011;7137;51.436;6.544;2022-12-20T03:11:00;3.90;;;1.93;;
14116;SDS011;7137;51.436;6.544;2022-12-20T03:14:02;3.80;;;2.00;;
14116;SDS011;7137;51.436;6.544;2022-12-20T03:17:05;4.33;;;2.20;;
14116;SDS011;7137;51.436;6.544;2022-12-20T03:20:07;4.90;;;2.40;;
14116;SDS011;7137;51.436;6.544;2022-12-20T03:23:10;5.43;;;2.33;;
14116;SDS011;7137;51.436;6.544;2022-12-20T03:26:11;5.33;;;2.23;;
14116;SDS011;7137;51.436;6.544;2022-12-20T03:29:14;3.77;;;2.10;;
14116;SDS011;7137;51.436;6.544;2022-12-20T03:32:17;4.60;;;2.17;;
14116;SDS011;7137;51.436;6.544;2022-12-20T03:35:19;5.33;;;2.33;;
14116;SDS011;7137;51.436;6.544;2022-12-20T03:38:20;5.93;;;2.23;;
14116;SDS011;7137;51.436;6.544;2022-12-20T03:41:22;4.70;;;2.27;;
14116;SDS011;7137;51.436;6.544;2022-12-20T03:44:24;4.87;;;2.40;;
14116;SDS011;7137;51.436;6.544;2022-12-20T03:47:27;3.73;;;2.10;;
14116;SDS011;7137;51.436;6.544;2022-12-20T03:50:29;7.07;;;2.57;;
14116;SDS011;7137;51.436;6.544;2022-12-20T03:53:31;4.87;;;2.17;;
14116;SDS011;7137;51.436;6.544;2022-12-20T03:56:33;5.30;;;2.33;;
14116;SDS011;7137;51.436;6.544;2022-12-20T03:59:34;5.77;;;2.83;;
14116;SDS011;7137;51.436;6.544;2022-12-20T04:02:37;5.33;;;2.43;;
14116;SDS011;7137;51.436;6.544;2022-12-20T04:05:38;4.40;;;2.50;;
14116;SDS011;7137;51.436;6.544;2022-12-20T04:08:41;5.50;;;2.60;;
14116;SDS011;7137;51.436;6.544;2022-12-20T04:11:42;4.63;;;2.60;;
14116;SDS011;7137;51.436;6.544;2022-12-20T04:14:44;5.00;;;2.60;;
14116;SDS011;7137;51.436;6.544;2022-12-20T04:17:47;5.13;;;2.70;;
14116;SDS011;7137;51.436;6.544;2022-12-20T04:20:51;4.50;;;2.27;;
14116;SDS011;7137;51.436;6.544;2022-12-20T04:23:53;6.37;;;3.07;;
14116;SDS011;7137;51.436;6.544;2022-12-20T04:26:54;4.83;;;2.90;;
14116;SDS011;7137;51.436;6.544;2022-12-20T04:29:56;5.67;;;3.10;;
14116;SDS011;7137;51.436;6.544;2022-12-20T04:32:59;5.70;;;2.80;;
14116;SDS011;7137;51.436;6.544;2022-12-20T04:36:00;6.50;;;3.37;;
14116;SDS011;7137;51.436;6.544;2022-12-20T04:39:02;5.70;;;3.00;;
14116;SDS011;7137;51.436;6.544;2022-12-20T04:42:04;6.17;;;3.20;;
14116;SDS011;7137;51.436;6.544;2022-12-20T04:45:06;4.93;;;2.87;;
14116;SDS011;7137;51.436;6.544;2022-12-20T04:48:09;6.13;;;3.23;;
14116;SDS011;7137;51.436;6.544;2022-12-20T04:51:11;5.20;;;3.00;;
14116;SDS011;7137;51.436;6.544;2022-12-20T04:54:13;5.83;;;3.30;;
14116;SDS011;7137;51.436;6.544;2022-12-20T04:57:14;5.80;;;3.27;;
14116;SDS011;7137;51.436;6.544;2022-12-20T05:00:16;6.40;;;3.70;;
14116;SDS011;7137;51.436;6.544;2022-12-20T05:03:20;6.43;;;3.73;;
14116;SDS011;7137;51.436;6.544;2022-12-20T05:06:23;6.60;;;3.90;;
14116;SDS011;7137;51.436;6.544;2022-12-20T05:09:25;6.60;;;3.53;;
14116;SDS011;7137;51.436;6.544;2022-12-20T05:12:26;6.73;;;3.57;;
14116;SDS011;7137;51.436;6.544;2022-12-20T05:15:28;6.57;;;3.77;;
14116;SDS011;7137;51.436;6.544;2022-12-20T05:18:31;7.37;;;4.07;;
14116;SDS011;7137;51.436;6.544;2022-12-20T05:21:32;6.00;;;4.17;;
14116;SDS011;7137;51.436;6.544;2022-12-20T05:24:51;7.73;;;3.80;;
14116;SDS011;7137;51.436;6.544;2022-12-20T05:28:10;6.00;;;3.90;;
14116;SDS011;7137;51.436;6.544;2022-12-20T05:31:12;6.10;;;4.07;;
14116;SDS011;7137;51.436;6.544;2022-12-20T05:34:15;8.07;;;4.10;;
14116;SDS011;7137;51.436;6.544;2022-12-20T05:37:16;7.93;;;4.50;;
14116;SDS011;7137;51.436;6.544;2022-12-20T05:40:18;9.70;;;5.47;;
14116;SDS011;7137;51.436;6.544;2022-12-20T05:43:19;7.93;;;5.10;;
14116;SDS011;7137;51.436;6.544;2022-12-20T05:46:21;7.30;;;5.30;;
14116;SDS011;7137;51.436;6.544;2022-12-20T05:49:24;7.40;;;5.30;;
14116;SDS011;7137;51.436;6.544;2022-12-20T05:52:25;9.23;;;5.13;;
14116;SDS011;7137;51.436;6.544;2022-12-20T05:55:27;8.13;;;4.87;;
14116;SDS011;7137;51.436;6.544;2022-12-20T05:58:29;7.87;;;5.13;;
14116;SDS011;7137;51.436;6.544;2022-12-20T06:01:31;9.77;;;5.27;;
14116;SDS011;7137;51.436;6.544;2022-12-20T06:04:34;9.50;;;5.10;;
14116;SDS011;7137;51.436;6.544;2022-12-20T06:07:37;7.10;;;5.57;;
14116;SDS011;7137;51.436;6.544;2022-12-20T06:10:39;9.87;;;5.33;;
14116;SDS011;7137;51.436;6.544;2022-12-20T06:13:41;7.87;;;5.20;;
14116;SDS011;7137;51.436;6.544;2022-12-20T06:16:43;11.30;;;5.80;;
14116;SDS011;7137;51.436;6.544;2022-12-20T06:19:46;8.43;;;5.47;;
14116;SDS011;7137;51.436;6.544;2022-12-20T06:22:48;9.50;;;5.63;;
14116;SDS011;7137;51.436;6.544;2022-12-20T06:25:50;9.43;;;5.40;;
14116;SDS011;7137;51.436;6.544;2022-12-20T06:28:51;9.80;;;5.17;;
14116;SDS011;7137;51.436;6.544;2022-12-20T06:31:56;8.67;;;5.40;;
14116;SDS011;7137;51.436;6.544;2022-12-20T06:34:58;9.20;;;5.50;;
14116;SDS011;7137;51.436;6.544;2022-12-20T06:38:00;9.07;;;5.30;;
14116;SDS011;7137;51.436;6.544;2022-12-20T06:41:02;6.87;;;4.37;;
14116;SDS011;7137;51.436;6.544;2022-12-20T06:44:03;8.77;;;5.20;;
14116;SDS011;7137;51.436;6.544;2022-12-20T06:47:05;7.77;;;4.70;;
14116;SDS011;7137;51.436;6.544;2022-12-20T06:50:10;7.83;;;5.30;;
14116;SDS011;7137;51.436;6.544;2022-12-20T06:53:12;7.77;;;5.03;;
14116;SDS011;7137;51.436;6.544;2022-12-20T06:56:13;9.27;;;5.07;;
14116;SDS011;7137;51.436;6.544;2022-12-20T06:59:15;7.67;;;4.77;;
14116;SDS011;7137;51.436;6.544;2022-12-20T07:02:17;7.23;;;4.47;;
14116;SDS011;7137;51.436;6.544;2022-12-20T07:05:20;7.07;;;4.30;;
14116;SDS011;7137;51.436;6.544;2022-12-20T07:08:22;6.67;;;4.17;;
14116;SDS011;7137;51.436;6.544;2022-12-20T07:11:24;7.50;;;4.00;;
14116;SDS011;7137;51.436;6.544;2022-12-20T07:14:25;8.03;;;4.20;;
14116;SDS011;7137;51.436;6.544;2022-12-20T07:17:27;7.87;;;4.20;;
14116;SDS011;7137;51.436;6.544;2022-12-20T07:20:30;7.10;;;4.07;;
14116;SDS011;7137;51.436;6.544;2022-12-20T07:23:32;7.00;;;4.73;;
14116;SDS011;7137;51.436;6.544;2022-12-20T07:26:33;6.17;;;3.90;;
14116;SDS011;7137;51.436;6.544;2022-12-20T07:29:35;6.73;;;4.50;;
14116;SDS011;7137;51.436;6.544;2022-12-20T07:32:39;7.57;;;3.93;;
14116;SDS011;7137;51.436;6.544;2022-12-20T07:35:42;7.43;;;3.80;;
14116;SDS011;7137;51.436;6.544;2022-12-20T07:38:44;6.60;;;3.80;;
14116;SDS011;7137;51.436;6.544;2022-12-20T07:41:46;6.57;;;3.60;;
14116;SDS011;7137;51.436;6.544;2022-12-20T07:44:47;6.33;;;3.80;;
14116;SDS011;7137;51.436;6.544;2022-12-20T07:47:49;5.57;;;3.33;;
14116;SDS011;7137;51.436;6.544;2022-12-20T07:50:52;5.33;;;2.90;;
14116;SDS011;7137;51.436;6.544;2022-12-20T07:53:59;5.00;;;3.10;;
14116;SDS011;7137;51.436;6.544;2022-12-20T07:57:04;6.63;;;2.77;;
14116;SDS011;7137;51.436;6.544;2022-12-20T08:00:12;6.63;;;2.97;;
14116;SDS011;7137;51.436;6.544;2022-12-20T08:03:16;6.40;;;3.10;;
14116;SDS011;7137;51.436;6.544;2022-12-20T08:06:22;4.70;;;2.97;;
14116;SDS011;7137;51.436;6.544;2022-12-20T08:09:23;5.20;;;3.27;;
14116;SDS011;7137;51.436;6.544;2022-12-20T08:12:28;6.50;;;3.17;;
14116;SDS011;7137;51.436;6.544;2022-12-20T08:15:31;6.20;;;3.70;;
14116;SDS011;7137;51.436;6.544;2022-12-20T08:18:34;6.43;;;3.50;;
14116;SDS011;7137;51.436;6.544;2022-12-20T08:21:37;6.90;;;3.40;;
14116;SDS011;7137;51.436;6.544;2022-12-20T08:24:38;7.00;;;3.43;;
14116;SDS011;7137;51.436;6.544;2022-12-20T08:27:40;6.70;;;3.40;;
14116;SDS011;7137;51.436;6.544;2022-12-20T08:30:41;5.93;;;2.93;;
14116;SDS011;7137;51.436;6.544;2022-12-20T08:33:43;5.63;;;2.93;;
14116;SDS011;7137;51.436;6.544;2022-12-20T08:36:46;5.87;;;2.97;;
14116;SDS011;7137;51.436;6.544;2022-12-20T08:39:48;4.77;;;2.87;;
14116;SDS011;7137;51.436;6.544;2022-12-20T08:42:49;5.37;;;3.00;;
14116;SDS011;7137;51.436;6.544;2022-12-20T08:45:51;6.17;;;2.90;;
14116;SDS011;7137;51.436;6.544;2022-12-20T08:48:53;6.57;;;2.90;;
14116;SDS011;7137;51.436;6.544;2022-12-20T08:51:56;5.90;;;2.97;;
14116;SDS011;7137;51.436;6.544;2022-12-20T08:54:58;5.73;;;2.80;;
14116;SDS011;7137;51.436;6.544;2022-12-20T08:57:59;5.17;;;3.40;;
14116;SDS011;7137;51.436;6.544;2022-12-20T09:01:02;6.47;;;3.30;;
14116;SDS011;7137;51.436;6.544;2022-12-20T09:04:05;6.00;;;3.60;;
14116;SDS011;7137;51.436;6.544;2022-12-20T09:07:08;5.87;;;3.07;;
14116;SDS011;7137;51.436;6.544;2022-12-20T09:10:10;7.00;;;2.77;;
14116;SDS011;7137;51.436;6.544;2022-12-20T09:13:13;5.80;;;2.80;;
14116;SDS011;7137;51.436;6.544;2022-12-20T09:16:16;5.67;;;2.80;;
14116;SDS011;7137;51.436;6.544;2022-12-20T09:19:19;4.97;;;2.60;;
14116;SDS011;7137;51.436;6.544;2022-12-20T09:22:22;4.70;;;2.60;;
14116;SDS011;7137;51.436;6.544;2022-12-20T09:25:24;5.53;;;2.90;;
14116;SDS011;7137;51.436;6.544;2022-12-20T09:28:25;5.43;;;2.67;;
14116;SDS011;7137;51.436;6.544;2022-12-20T09:31:27;6.27;;;2.93;;
14116;SDS011;7137;51.436;6.544;2022-12-20T09:34:28;6.80;;;3.07;;
14116;SDS011;7137;51.436;6.544;2022-12-20T09:37:31;4.77;;;2.80;;
14116;SDS011;7137;51.436;6.544;2022-12-20T09:40:33;7.57;;;3.10;;
14116;SDS011;7137;51.436;6.544;2022-12-20T09:43:37;5.67;;;3.33;;
14116;SDS011;7137;51.436;6.544;2022-12-20T09:46:40;5.33;;;3.00;;
14116;SDS011;7137;51.436;6.544;2022-12-20T09:49:44;6.47;;;3.70;;
14116;SDS011;7137;51.436;6.544;2022-12-20T09:52:53;6.60;;;3.80;;
14116;SDS011;7137;51.436;6.544;2022-12-20T09:56:06;7.67;;;3.37;;
14116;SDS011;7137;51.436;6.544;2022-12-20T09:59:14;5.37;;;2.70;;
14116;SDS011;7137;51.436;6.544;2022-12-20T10:02:19;6.13;;;3.17;;
14116;SDS011;7137;51.436;6.544;2022-12-20T10:05:24;6.00;;;2.97;;
14116;SDS011;7137;51.436;6.544;2022-12-20T10:08:40;4.57;;;2.60;;
14116;SDS011;7137;51.436;6.544;2022-12-20T10:11:51;4.93;;;2.80;;
14116;SDS011;7137;51.436;6.544;2022-12-20T10:15:17;4.63;;;2.90;;
14116;SDS011;7137;51.436;6.544;2022-12-20T10:18:23;5.50;;;2.73;;
14116;SDS011;7137;51.436;6.544;2022-12-20T10:21:38;7.90;;;2.80;;
14116;SDS011;7137;51.436;6.544;2022-12-20T10:24:50;6.03;;;2.90;;
14116;SDS011;7137;51.436;6.544;2022-12-20T10:27:56;5.23;;;2.83;;
14116;SDS011;7137;51.436;6.544;2022-12-20T10:31:01;6.10;;;2.90;;
14116;SDS011;7137;51.436;6.544;2022-12-20T10:34:05;5.67;;;3.00;;
14116;SDS011;7137;51.436;6.544;2022-12-20T10:37:10;5.77;;;2.87;;
14116;SDS011;7137;51.436;6.544;2022-12-20T10:40:15;5.23;;;2.60;;
14116;SDS011;7137;51.436;6.544;2022-12-20T10:43:26;5.37;;;2.97;;
14116;SDS011;7137;51.436;6.544;2022-12-20T10:46:36;4.97;;;2.60;;
14116;SDS011;7137;51.436;6.544;2022-12-20T10:49:40;6.43;;;3.10;;
14116;SDS011;7137;51.436;6.544;2022-12-20T10:52:42;5.50;;;2.80;;
14116;SDS011;7137;51.436;6.544;2022-12-20T10:55:46;5.50;;;2.90;;
14116;SDS011;7137;51.436;6.544;2022-12-20T10:58:52;5.93;;;2.90;;
14116;SDS011;7137;51.436;6.544;2022-12-20T11:01:56;6.60;;;2.80;;
14116;SDS011;7137;51.436;6.544;2022-12-20T11:05:02;5.67;;;2.83;;
14116;SDS011;7137;51.436;6.544;2022-12-20T11:08:16;6.97;;;2.70;;
14116;SDS011;7137;51.436;6.544;2022-12-20T11:11:20;6.30;;;2.60;;
14116;SDS011;7137;51.436;6.544;2022-12-20T11:14:23;6.90;;;3.43;;
14116;SDS011;7137;51.436;6.544;2022-12-20T11:17:27;6.30;;;2.80;;
14116;SDS011;7137;51.436;6.544;2022-12-20T11:20:37;5.90;;;2.77;;
14116;SDS011;7137;51.436;6.544;2022-12-20T11:23:43;6.23;;;2.70;;
14116;SDS011;7137;51.436;6.544;2022-12-20T11:26:59;6.33;;;2.50;;
14116;SDS011;7137;51.436;6.544;2022-12-20T11:30:16;6.60;;;2.37;;
14116;SDS011;7137;51.436;6.544;2022-12-20T11:33:25;5.40;;;2.50;;
14116;SDS011;7137;51.436;6.544;2022-12-20T11:36:50;4.97;;;2.40;;
14116;SDS011;7137;51.436;6.544;2022-12-20T11:40:05;5.20;;;3.10;;
14116;SDS011;7137;51.436;6.544;2022-12-20T11:43:25;4.47;;;3.00;;
14116;SDS011;7137;51.436;6.544;2022-12-20T11:46:39;5.00;;;3.00;;
14116;SDS011;7137;51.436;6.544;2022-12-20T11:49:52;5.47;;;3.20;;
14116;SDS011;7137;51.436;6.544;2022-12-20T11:53:12;6.70;;;3.53;;
14116;SDS011;7137;51.436;6.544;2022-12-20T11:56:20;6.00;;;3.00;;
14116;SDS011;7137;51.436;6.544;2022-12-20T11:59:30;6.40;;;3.40;;
14116;SDS011;7137;51.436;6.544;2022-12-20T12:02:37;7.10;;;3.30;;
14116;SDS011;7137;51.436;6.544;2022-12-20T12:05:45;6.47;;;3.33;;
14116;SDS011;7137;51.436;6.544;2022-12-20T12:08:52;5.63;;;2.97;;
14116;SDS011;7137;51.436;6.544;2022-12-20T12:11:59;4.43;;;2.23;;
14116;SDS011;7137;51.436;6.544;2022-12-20T12:15:17;4.80;;;2.00;;
14116;SDS011;7137;51.436;6.544;2022-12-20T12:18:28;4.63;;;2.20;;
14116;SDS011;7137;51.436;6.544;2022-12-20T12:21:32;3.80;;;1.80;;
14116;SDS011;7137;51.436;6.544;2022-12-20T12:24:41;4.93;;;2.00;;
14116;SDS011;7137;51.436;6.544;2022-12-20T12:27:46;4.07;;;2.20;;
14116;SDS011;7137;51.436;6.544;2022-12-20T12:30:51;4.80;;;2.13;;
14116;SDS011;7137;51.436;6.544;2022-12-20T12:34:01;3.53;;;1.80;;
14116;SDS011;7137;51.436;6.544;2022-12-20T12:40:42;3.90;;;1.93;;
14116;SDS011;7137;51.436;6.544;2022-12-20T12:43:57;4.67;;;2.03;;
14116;SDS011;7137;51.436;6.544;2022-12-20T12:47:22;5.80;;;2.00;;
14116;SDS011;7137;51.436;6.544;2022-12-20T12:50:36;4.93;;;2.10;;
14116;SDS011;7137;51.436;6.544;2022-12-20T12:53:43;5.10;;;2.00;;
14116;SDS011;7137;51.436;6.544;2022-12-20T12:56:49;5.17;;;2.17;;
14116;SDS011;7137;51.436;6.544;2022-12-20T12:59:53;6.60;;;2.10;;
14116;SDS011;7137;51.436;6.544;2022-12-20T13:02:56;6.27;;;2.30;;
14116;SDS011;7137;51.436;6.544;2022-12-20T13:05:57;4.47;;;2.20;;
14116;SDS011;7137;51.436;6.544;2022-12-20T13:09:39;4.00;;;2.00;;
14116;SDS011;7137;51.436;6.544;2022-12-20T13:12:46;5.47;;;2.53;;
14116;SDS011;7137;51.436;6.544;2022-12-20T13:16:09;4.97;;;2.10;;
14116;SDS011;7137;51.436;6.544;2022-12-20T13:19:14;5.70;;;2.20;;
14116;SDS011;7137;51.436;6.544;2022-12-20T13:22:18;5.10;;;2.57;;
14116;SDS011;7137;51.436;6.544;2022-12-20T13:25:28;5.07;;;2.20;;
14116;SDS011;7137;51.436;6.544;2022-12-20T13:31:47;5.73;;;2.33;;
14116;SDS011;7137;51.436;6.544;2022-12-20T13:34:52;7.23;;;2.63;;
14116;SDS011;7137;51.436;6.544;2022-12-20T13:37:56;7.63;;;2.73;;
14116;SDS011;7137;51.436;6.544;2022-12-20T13:41:08;7.43;;;3.97;;
14116;SDS011;7137;51.436;6.544;2022-12-20T13:47:46;7.07;;;2.90;;
14116;SDS011;7137;51.436;6.544;2022-12-20T13:50:50;5.00;;;2.60;;
14116;SDS011;7137;51.436;6.544;2022-12-20T13:53:53;6.03;;;2.60;;
14116;SDS011;7137;51.436;6.544;2022-12-20T13:56:58;5.23;;;2.80;;
14116;SDS011;7137;51.436;6.544;2022-12-20T14:00:03;5.03;;;2.90;;
14116;SDS011;7137;51.436;6.544;2022-12-20T14:03:09;5.93;;;2.63;;
14116;SDS011;7137;51.436;6.544;2022-12-20T14:06:24;5.37;;;2.80;;
14116;SDS011;7137;51.436;6.544;2022-12-20T14:09:27;4.73;;;2.60;;
14116;SDS011;7137;51.436;6.544;2022-12-20T14:12:33;5.97;;;2.67;;
14116;SDS011;7137;51.436;6.544;2022-12-20T14:15:34;5.27;;;2.70;;
14116;SDS011;7137;51.436;6.544;2022-12-20T14:18:36;6.47;;;2.90;;
14116;SDS011;7137;51.436;6.544;2022-12-20T14:21:38;7.53;;;3.10;;
14116;SDS011;7137;51.436;6.544;2022-12-20T14:24:42;7.70;;;3.10;;
14116;SDS011;7137;51.436;6.544;2022-12-20T14:27:46;7.23;;;2.77;;
14116;SDS011;7137;51.436;6.544;2022-12-20T14:30:48;5.97;;;2.50;;
14116;SDS011;7137;51.436;6.544;2022-12-20T14:33:49;6.47;;;2.67;;
14116;SDS011;7137;51.436;6.544;2022-12-20T14:36:54;5.00;;;2.90;;
14116;SDS011;7137;51.436;6.544;2022-12-20T14:40:30;4.20;;;2.50;;
14116;SDS011;7137;51.436;6.544;2022-12-20T14:43:34;5.77;;;2.20;;
14116;SDS011;7137;51.436;6.544;2022-12-20T14:46:36;4.87;;;2.70;;
14116;SDS011;7137;51.436;6.544;2022-12-20T14:49:45;5.07;;;2.60;;
14116;SDS011;7137;51.436;6.544;2022-12-20T14:52:48;4.27;;;2.30;;
14116;SDS011;7137;51.436;6.544;2022-12-20T14:55:50;6.30;;;2.37;;
14116;SDS011;7137;51.436;6.544;2022-12-20T14:59:11;5.13;;;2.40;;
14116;SDS011;7137;51.436;6.544;2022-12-20T15:02:22;6.50;;;2.80;;
14116;SDS011;7137;51.436;6.544;2022-12-20T15:05:40;4.20;;;2.40;;
14116;SDS011;7137;51.436;6.544;2022-12-20T15:08:45;5.77;;;2.77;;
14116;SDS011;7137;51.436;6.544;2022-12-20T15:11:47;6.33;;;2.60;;
14116;SDS011;7137;51.436;6.544;2022-12-20T15:14:52;5.43;;;2.30;;
14116;SDS011;7137;51.436;6.544;2022-12-20T15:17:53;5.50;;;2.47;;
14116;SDS011;7137;51.436;6.544;2022-12-20T15:20:58;6.70;;;2.40;;
14116;SDS011;7137;51.436;6.544;2022-12-20T15:24:08;6.00;;;2.40;;
14116;SDS011;7137;51.436;6.544;2022-12-20T15:27:13;4.07;;;2.20;;
14116;SDS011;7137;51.436;6.544;2022-12-20T15:30:17;6.27;;;2.60;;
14116;SDS011;7137;51.436;6.544;2022-12-20T15:33:20;4.73;;;2.50;;
14116;SDS011;7137;51.436;6.544;2022-12-20T15:36:25;4.70;;;2.60;;
14116;SDS011;7137;51.436;6.544;2022-12-20T15:39:28;5.47;;;2.50;;
14116;SDS011;7137;51.436;6.544;2022-12-20T15:42:31;7.00;;;2.57;;
14116;SDS011;7137;51.436;6.544;2022-12-20T15:45:34;5.17;;;2.63;;
14116;SDS011;7137;51.436;6.544;2022-12-20T15:48:35;5.93;;;3.60;;
14116;SDS011;7137;51.436;6.544;2022-12-20T15:51:40;6.33;;;3.60;;
14116;SDS011;7137;51.436;6.544;2022-12-20T15:54:46;6.87;;;4.13;;
14116;SDS011;7137;51.436;6.544;2022-12-20T15:57:47;6.00;;;3.60;;
14116;SDS011;7137;51.436;6.544;2022-12-20T16:00:52;6.70;;;3.20;;
14116;SDS011;7137;51.436;6.544;2022-12-20T16:03:54;5.30;;;3.40;;
14116;SDS011;7137;51.436;6.544;2022-12-20T16:06:56;7.40;;;3.57;;
14116;SDS011;7137;51.436;6.544;2022-12-20T16:09:57;5.30;;;3.70;;
14116;SDS011;7137;51.436;6.544;2022-12-20T16:12:59;5.30;;;3.20;;
14116;SDS011;7137;51.436;6.544;2022-12-20T16:16:02;4.93;;;3.17;;
14116;SDS011;7137;51.436;6.544;2022-12-20T16:19:05;5.77;;;3.10;;
14116;SDS011;7137;51.436;6.544;2022-12-20T16:22:08;6.73;;;3.10;;
14116;SDS011;7137;51.436;6.544;2022-12-20T16:28:35;6.77;;;4.00;;
14116;SDS011;7137;51.436;6.544;2022-12-20T16:31:38;6.63;;;3.77;;
14116;SDS011;7137;51.436;6.544;2022-12-20T16:34:41;6.03;;;3.93;;
14116;SDS011;7137;51.436;6.544;2022-12-20T16:37:43;7.47;;;4.00;;
14116;SDS011;7137;51.436;6.544;2022-12-20T16:40:44;6.20;;;2.90;;
14116;SDS011;7137;51.436;6.544;2022-12-20T16:43:47;4.70;;;2.93;;
14116;SDS011;7137;51.436;6.544;2022-12-20T16:46:51;7.20;;;4.57;;
14116;SDS011;7137;51.436;6.544;2022-12-20T16:49:53;9.37;;;5.37;;
14116;SDS011;7137;51.436;6.544;2022-12-20T16:52:55;6.90;;;4.73;;
14116;SDS011;7137;51.436;6.544;2022-12-20T16:55:56;5.43;;;3.83;;
14116;SDS011;7137;51.436;6.544;2022-12-20T16:58:58;5.83;;;3.17;;
14116;SDS011;7137;51.436;6.544;2022-12-20T17:02:01;5.47;;;3.37;;
14116;SDS011;7137;51.436;6.544;2022-12-20T17:05:03;6.97;;;3.67;;
14116;SDS011;7137;51.436;6.544;2022-12-20T17:08:06;5.80;;;3.50;;
14116;SDS011;7137;51.436;6.544;2022-12-20T17:11:10;8.17;;;4.50;;
14116;SDS011;7137;51.436;6.544;2022-12-20T17:14:14;9.93;;;5.77;;
14116;SDS011;7137;51.436;6.544;2022-12-20T17:17:18;7.67;;;5.33;;
14116;SDS011;7137;51.436;6.544;2022-12-20T17:20:21;8.20;;;5.00;;
14116;SDS011;7137;51.436;6.544;2022-12-20T17:23:23;7.10;;;4.37;;
14116;SDS011;7137;51.436;6.544;2022-12-20T17:26:26;6.53;;;4.93;;
14116;SDS011;7137;51.436;6.544;2022-12-20T17:29:29;7.00;;;5.10;;
14116;SDS011;7137;51.436;6.544;2022-12-20T17:32:32;6.23;;;4.47;;
14116;SDS011;7137;51.436;6.544;2022-12-20T17:35:33;8.67;;;5.47;;
14116;SDS011;7137;51.436;6.544;2022-12-20T17:38:35;7.10;;;4.53;;
14116;SDS011;7137;51.436;6.544;2022-12-20T17:41:37;6.67;;;4.57;;
14116;SDS011;7137;51.436;6.544;2022-12-20T17:44:39;9.47;;;5.70;;
14116;SDS011;7137;51.436;6.544;2022-12-20T17:47:42;8.90;;;6.60;;
14116;SDS011;7137;51.436;6.544;2022-12-20T17:50:44;8.50;;;5.77;;
14116;SDS011;7137;51.436;6.544;2022-12-20T17:53:47;7.70;;;5.60;;
14116;SDS011;7137;51.436;6.544;2022-12-20T17:56:50;7.27;;;5.00;;
14116;SDS011;7137;51.436;6.544;2022-12-20T17:59:58;7.73;;;5.40;;
14116;SDS011;7137;51.436;6.544;2022-12-20T18:03:01;9.73;;;6.83;;
14116;SDS011;7137;51.436;6.544;2022-12-20T18:06:04;11.27;;;7.10;;
14116;SDS011;7137;51.436;6.544;2022-12-20T18:09:09;9.57;;;6.83;;
14116;SDS011;7137;51.436;6.544;2022-12-20T18:12:13;7.10;;;5.30;;
14116;SDS011;7137;51.436;6.544;2022-12-20T18:15:16;8.77;;;6.03;;
14116;SDS011;7137;51.436;6.544;2022-12-20T18:18:20;10.07;;;6.33;;
14116;SDS011;7137;51.436;6.544;2022-12-20T18:21:22;9.97;;;7.17;;
14116;SDS011;7137;51.436;6.544;2022-12-20T18:24:25;10.10;;;7.23;;
14116;SDS011;7137;51.436;6.544;2022-12-20T18:27:27;8.00;;;5.83;;
14116;SDS011;7137;51.436;6.544;2022-12-20T18:30:29;8.40;;;5.43;;
14116;SDS011;7137;51.436;6.544;2022-12-20T18:33:32;7.23;;;4.87;;
14116;SDS011;7137;51.436;6.544;2022-12-20T18:36:34;9.73;;;5.17;;
14116;SDS011;7137;51.436;6.544;2022-12-20T18:39:37;7.60;;;4.97;;
14116;SDS011;7137;51.436;6.544;2022-12-20T18:42:38;10.03;;;5.73;;
14116;SDS011;7137;51.436;6.544;2022-12-20T18:45:40;8.13;;;5.23;;
14116;SDS011;7137;51.436;6.544;2022-12-20T18:48:43;9.90;;;5.30;;
14116;SDS011;7137;51.436;6.544;2022-12-20T18:51:45;8.87;;;5.43;;
14116;SDS011;7137;51.436;6.544;2022-12-20T18:54:46;9.30;;;5.93;;
14116;SDS011;7137;51.436;6.544;2022-12-20T18:57:48;8.73;;;5.83;;
14116;SDS011;7137;51.436;6.544;2022-12-20T19:00:50;7.20;;;4.97;;
14116;SDS011;7137;51.436;6.544;2022-12-20T19:03:53;8.03;;;4.93;;